sensor_id;sensor_type;location;lat;lon;timestamp;P1;durP1;ratioP1;P2;durP2;ratioP2
9914;SDS011;4996;48.746;9.174;2023-08-17T00:01:25;9.43;;;7.73;;
9914;SDS011;4996;48.746;9.174;2023-08-17T00:03:51;10.20;;;7.70;;
9914;SDS011;4996;48.746;9.174;2023-08-17T00:06:16;10.27;;;8.50;;
9914;SDS011;4996;48.746;9.174;2023-08-17T00:08:42;9.47;;;8.03;;
9914;SDS011;4996;48.746;9.174;2023-08-17T00:11:08;9.57;;;8.57;;
9914;SDS011;4996;48.746;9.174;2023-08-17T00:13:34;10.07;;;9.00;;
9914;SDS011;4996;48.746;9.174;2023-08-17T00:15:59;13.30;;;9.77;;
9914;SDS011;4996;48.746;9.174;2023-08-17T00:18:25;8.17;;;6.73;;
9914;SDS011;4996;48.746;9.174;2023-08-17T00:20:50;7.60;;;6.53;;
9914;SDS011;4996;48.746;9.174;2023-08-17T00:23:16;12.17;;;8.83;;
9914;SDS011;4996;48.746;9.174;2023-08-17T00:25:41;12.43;;;9.97;;
9914;SDS011;4996;48.746;9.174;2023-08-17T00:28:07;14.43;;;9.70;;
9914;SDS011;4996;48.746;9.174;2023-08-17T00:30:33;10.87;;;9.00;;
9914;SDS011;4996;48.746;9.174;2023-08-17T00:33:01;12.53;;;9.93;;
9914;SDS011;4996;48.746;9.174;2023-08-17T00:35:27;12.70;;;8.90;;
9914;SDS011;4996;48.746;9.174;2023-08-17T00:37:52;10.20;;;9.07;;
9914;SDS011;4996;48.746;9.174;2023-08-17T00:40:18;11.70;;;9.50;;
9914;SDS011;4996;48.746;9.174;2023-08-17T00:42:44;12.23;;;9.60;;
9914;SDS011;4996;48.746;9.174;2023-08-17T00:45:09;10.40;;;8.40;;
9914;SDS011;4996;48.746;9.174;2023-08-17T00:47:35;11.87;;;8.57;;
9914;SDS011;4996;48.746;9.174;2023-08-17T00:50:00;14.10;;;11.70;;
9914;SDS011;4996;48.746;9.174;2023-08-17T00:52:27;12.73;;;8.80;;
9914;SDS011;4996;48.746;9.174;2023-08-17T00:54:53;10.07;;;8.97;;
9914;SDS011;4996;48.746;9.174;2023-08-17T00:57:20;9.37;;;7.37;;
9914;SDS011;4996;48.746;9.174;2023-08-17T00:59:46;9.10;;;6.90;;
9914;SDS011;4996;48.746;9.174;2023-08-17T01:02:12;10.67;;;7.23;;
9914;SDS011;4996;48.746;9.174;2023-08-17T01:04:37;8.03;;;6.83;;
9914;SDS011;4996;48.746;9.174;2023-08-17T01:07:03;8.00;;;7.20;;
9914;SDS011;4996;48.746;9.174;2023-08-17T01:09:28;11.50;;;8.17;;
9914;SDS011;4996;48.746;9.174;2023-08-17T01:12:02;9.87;;;7.90;;
9914;SDS011;4996;48.746;9.174;2023-08-17T01:14:59;10.43;;;6.87;;
9914;SDS011;4996;48.746;9.174;2023-08-17T01:17:31;8.87;;;7.90;;
9914;SDS011;4996;48.746;9.174;2023-08-17T01:20:02;10.97;;;8.50;;
9914;SDS011;4996;48.746;9.174;2023-08-17T01:22:29;11.67;;;9.40;;
9914;SDS011;4996;48.746;9.174;2023-08-17T01:24:57;15.60;;;10.67;;
9914;SDS011;4996;48.746;9.174;2023-08-17T01:27:23;18.80;;;13.10;;
9914;SDS011;4996;48.746;9.174;2023-08-17T01:29:49;23.50;;;14.17;;
9914;SDS011;4996;48.746;9.174;2023-08-17T01:32:21;18.83;;;14.00;;
9914;SDS011;4996;48.746;9.174;2023-08-17T01:34:57;26.33;;;16.13;;
9914;SDS011;4996;48.746;9.174;2023-08-17T01:37:29;23.03;;;15.60;;
9914;SDS011;4996;48.746;9.174;2023-08-17T01:39:58;23.47;;;16.63;;
9914;SDS011;4996;48.746;9.174;2023-08-17T01:42:24;28.43;;;17.37;;
9914;SDS011;4996;48.746;9.174;2023-08-17T01:44:51;31.30;;;17.97;;
9914;SDS011;4996;48.746;9.174;2023-08-17T01:47:20;24.83;;;16.87;;
9914;SDS011;4996;48.746;9.174;2023-08-17T01:49:46;24.00;;;17.00;;
9914;SDS011;4996;48.746;9.174;2023-08-17T01:52:12;23.60;;;16.57;;
9914;SDS011;4996;48.746;9.174;2023-08-17T01:54:37;22.27;;;16.30;;
9914;SDS011;4996;48.746;9.174;2023-08-17T01:57:03;20.60;;;14.53;;
9914;SDS011;4996;48.746;9.174;2023-08-17T01:59:28;16.60;;;13.97;;
9914;SDS011;4996;48.746;9.174;2023-08-17T02:01:54;19.37;;;14.30;;
9914;SDS011;4996;48.746;9.174;2023-08-17T02:04:19;20.60;;;14.00;;
9914;SDS011;4996;48.746;9.174;2023-08-17T02:06:45;20.27;;;14.10;;
9914;SDS011;4996;48.746;9.174;2023-08-17T02:09:10;20.80;;;14.47;;
9914;SDS011;4996;48.746;9.174;2023-08-17T02:11:36;19.00;;;14.40;;
9914;SDS011;4996;48.746;9.174;2023-08-17T02:14:01;18.10;;;13.40;;
9914;SDS011;4996;48.746;9.174;2023-08-17T02:16:27;20.23;;;14.10;;
9914;SDS011;4996;48.746;9.174;2023-08-17T02:18:52;20.60;;;15.10;;
9914;SDS011;4996;48.746;9.174;2023-08-17T02:21:18;18.20;;;14.70;;
9914;SDS011;4996;48.746;9.174;2023-08-17T02:23:43;20.07;;;15.47;;
9914;SDS011;4996;48.746;9.174;2023-08-17T02:26:09;23.70;;;17.47;;
9914;SDS011;4996;48.746;9.174;2023-08-17T02:28:35;22.60;;;17.60;;
9914;SDS011;4996;48.746;9.174;2023-08-17T02:31:00;22.10;;;17.40;;
9914;SDS011;4996;48.746;9.174;2023-08-17T02:33:26;20.20;;;15.03;;
9914;SDS011;4996;48.746;9.174;2023-08-17T02:35:52;19.77;;;14.83;;
9914;SDS011;4996;48.746;9.174;2023-08-17T02:38:17;22.20;;;14.70;;
9914;SDS011;4996;48.746;9.174;2023-08-17T02:40:43;21.73;;;15.60;;
9914;SDS011;4996;48.746;9.174;2023-08-17T02:43:09;21.70;;;16.40;;
9914;SDS011;4996;48.746;9.174;2023-08-17T02:45:34;22.67;;;15.70;;
9914;SDS011;4996;48.746;9.174;2023-08-17T02:48:00;26.47;;;17.27;;
9914;SDS011;4996;48.746;9.174;2023-08-17T02:50:26;22.53;;;15.33;;
9914;SDS011;4996;48.746;9.174;2023-08-17T02:52:51;25.20;;;16.70;;
9914;SDS011;4996;48.746;9.174;2023-08-17T02:55:17;25.43;;;17.27;;
9914;SDS011;4996;48.746;9.174;2023-08-17T02:57:42;24.37;;;17.37;;
9914;SDS011;4996;48.746;9.174;2023-08-17T03:00:08;25.43;;;16.33;;
9914;SDS011;4996;48.746;9.174;2023-08-17T03:02:34;20.87;;;15.03;;
9914;SDS011;4996;48.746;9.174;2023-08-17T03:04:59;20.37;;;15.20;;
9914;SDS011;4996;48.746;9.174;2023-08-17T03:07:25;23.03;;;15.50;;
9914;SDS011;4996;48.746;9.174;2023-08-17T03:09:50;25.73;;;17.07;;
9914;SDS011;4996;48.746;9.174;2023-08-17T03:12:16;22.17;;;16.90;;
9914;SDS011;4996;48.746;9.174;2023-08-17T03:14:41;21.57;;;16.90;;
9914;SDS011;4996;48.746;9.174;2023-08-17T03:17:07;23.30;;;15.80;;
9914;SDS011;4996;48.746;9.174;2023-08-17T03:19:32;24.40;;;16.60;;
9914;SDS011;4996;48.746;9.174;2023-08-17T03:21:58;20.60;;;15.47;;
9914;SDS011;4996;48.746;9.174;2023-08-17T03:24:23;23.50;;;16.00;;
9914;SDS011;4996;48.746;9.174;2023-08-17T03:26:49;18.80;;;15.00;;
9914;SDS011;4996;48.746;9.174;2023-08-17T03:29:15;23.77;;;16.77;;
9914;SDS011;4996;48.746;9.174;2023-08-17T03:31:40;22.57;;;16.00;;
9914;SDS011;4996;48.746;9.174;2023-08-17T03:34:06;24.20;;;17.33;;
9914;SDS011;4996;48.746;9.174;2023-08-17T03:36:31;23.80;;;16.87;;
9914;SDS011;4996;48.746;9.174;2023-08-17T03:38:57;21.27;;;16.03;;
9914;SDS011;4996;48.746;9.174;2023-08-17T03:41:22;27.43;;;18.70;;
9914;SDS011;4996;48.746;9.174;2023-08-17T03:43:48;24.57;;;18.40;;
9914;SDS011;4996;48.746;9.174;2023-08-17T03:46:14;23.97;;;16.73;;
9914;SDS011;4996;48.746;9.174;2023-08-17T03:48:39;25.77;;;16.50;;
9914;SDS011;4996;48.746;9.174;2023-08-17T03:51:05;25.20;;;17.03;;
9914;SDS011;4996;48.746;9.174;2023-08-17T03:53:30;25.60;;;17.87;;
9914;SDS011;4996;48.746;9.174;2023-08-17T03:55:56;29.60;;;18.10;;
9914;SDS011;4996;48.746;9.174;2023-08-17T03:58:22;28.03;;;17.27;;
9914;SDS011;4996;48.746;9.174;2023-08-17T04:00:50;25.50;;;17.77;;
9914;SDS011;4996;48.746;9.174;2023-08-17T04:03:16;26.37;;;17.67;;
9914;SDS011;4996;48.746;9.174;2023-08-17T04:05:42;23.23;;;18.17;;
9914;SDS011;4996;48.746;9.174;2023-08-17T04:08:08;23.50;;;17.50;;
9914;SDS011;4996;48.746;9.174;2023-08-17T04:10:33;26.10;;;18.23;;
9914;SDS011;4996;48.746;9.174;2023-08-17T04:12:59;24.97;;;18.63;;
9914;SDS011;4996;48.746;9.174;2023-08-17T04:15:24;40.70;;;20.80;;
9914;SDS011;4996;48.746;9.174;2023-08-17T04:17:50;25.13;;;17.73;;
9914;SDS011;4996;48.746;9.174;2023-08-17T04:20:15;29.43;;;20.07;;
9914;SDS011;4996;48.746;9.174;2023-08-17T04:22:43;28.10;;;18.27;;
9914;SDS011;4996;48.746;9.174;2023-08-17T04:25:08;32.70;;;20.00;;
9914;SDS011;4996;48.746;9.174;2023-08-17T04:27:34;31.20;;;19.17;;
9914;SDS011;4996;48.746;9.174;2023-08-17T04:30:00;26.23;;;18.70;;
9914;SDS011;4996;48.746;9.174;2023-08-17T04:32:26;27.07;;;19.50;;
9914;SDS011;4996;48.746;9.174;2023-08-17T04:34:51;26.27;;;18.80;;
9914;SDS011;4996;48.746;9.174;2023-08-17T04:37:17;24.13;;;18.70;;
9914;SDS011;4996;48.746;9.174;2023-08-17T04:39:42;27.67;;;18.53;;
9914;SDS011;4996;48.746;9.174;2023-08-17T04:42:08;32.70;;;18.40;;
9914;SDS011;4996;48.746;9.174;2023-08-17T04:44:34;29.93;;;19.20;;
9914;SDS011;4996;48.746;9.174;2023-08-17T04:47:00;29.23;;;19.67;;
9914;SDS011;4996;48.746;9.174;2023-08-17T04:49:25;25.90;;;17.57;;
9914;SDS011;4996;48.746;9.174;2023-08-17T04:51:51;29.60;;;18.97;;
9914;SDS011;4996;48.746;9.174;2023-08-17T04:54:17;24.53;;;16.90;;
9914;SDS011;4996;48.746;9.174;2023-08-17T04:56:43;30.07;;;18.60;;
9914;SDS011;4996;48.746;9.174;2023-08-17T04:59:08;27.30;;;17.90;;
9914;SDS011;4996;48.746;9.174;2023-08-17T05:01:34;22.90;;;15.43;;
9914;SDS011;4996;48.746;9.174;2023-08-17T05:04:00;22.93;;;15.10;;
9914;SDS011;4996;48.746;9.174;2023-08-17T05:06:27;23.23;;;16.43;;
9914;SDS011;4996;48.746;9.174;2023-08-17T05:08:53;23.90;;;14.97;;
9914;SDS011;4996;48.746;9.174;2023-08-17T05:11:19;22.87;;;16.60;;
9914;SDS011;4996;48.746;9.174;2023-08-17T05:13:44;20.77;;;14.77;;
9914;SDS011;4996;48.746;9.174;2023-08-17T05:16:10;24.37;;;16.20;;
9914;SDS011;4996;48.746;9.174;2023-08-17T05:18:36;24.73;;;16.17;;
9914;SDS011;4996;48.746;9.174;2023-08-17T05:21:01;28.57;;;18.17;;
9914;SDS011;4996;48.746;9.174;2023-08-17T05:23:27;34.13;;;17.50;;
9914;SDS011;4996;48.746;9.174;2023-08-17T05:25:52;23.83;;;18.17;;
9914;SDS011;4996;48.746;9.174;2023-08-17T05:28:18;26.73;;;16.90;;
9914;SDS011;4996;48.746;9.174;2023-08-17T05:30:43;31.20;;;19.90;;
9914;SDS011;4996;48.746;9.174;2023-08-17T05:33:09;28.80;;;18.90;;
9914;SDS011;4996;48.746;9.174;2023-08-17T05:35:34;27.10;;;18.63;;
9914;SDS011;4996;48.746;9.174;2023-08-17T05:38:00;25.87;;;16.60;;
9914;SDS011;4996;48.746;9.174;2023-08-17T05:40:26;28.83;;;19.50;;
9914;SDS011;4996;48.746;9.174;2023-08-17T05:42:54;31.60;;;19.63;;
9914;SDS011;4996;48.746;9.174;2023-08-17T05:45:19;22.97;;;17.73;;
9914;SDS011;4996;48.746;9.174;2023-08-17T05:47:44;25.30;;;18.97;;
9914;SDS011;4996;48.746;9.174;2023-08-17T05:50:10;26.07;;;19.00;;
9914;SDS011;4996;48.746;9.174;2023-08-17T05:52:36;27.77;;;17.60;;
9914;SDS011;4996;48.746;9.174;2023-08-17T05:55:01;29.23;;;18.73;;
9914;SDS011;4996;48.746;9.174;2023-08-17T05:57:27;24.00;;;18.07;;
9914;SDS011;4996;48.746;9.174;2023-08-17T05:59:52;25.97;;;18.70;;
9914;SDS011;4996;48.746;9.174;2023-08-17T06:02:18;32.67;;;20.10;;
9914;SDS011;4996;48.746;9.174;2023-08-17T06:04:43;28.03;;;18.00;;
9914;SDS011;4996;48.746;9.174;2023-08-17T06:07:09;24.03;;;18.57;;
9914;SDS011;4996;48.746;9.174;2023-08-17T06:09:34;27.70;;;19.17;;
9914;SDS011;4996;48.746;9.174;2023-08-17T06:12:00;27.40;;;18.67;;
9914;SDS011;4996;48.746;9.174;2023-08-17T06:14:25;26.43;;;18.33;;
9914;SDS011;4996;48.746;9.174;2023-08-17T06:16:51;25.80;;;16.93;;
9914;SDS011;4996;48.746;9.174;2023-08-17T06:19:16;21.50;;;15.93;;
9914;SDS011;4996;48.746;9.174;2023-08-17T06:21:42;18.87;;;14.83;;
9914;SDS011;4996;48.746;9.174;2023-08-17T06:24:07;20.90;;;16.60;;
9914;SDS011;4996;48.746;9.174;2023-08-17T06:26:33;22.53;;;16.03;;
9914;SDS011;4996;48.746;9.174;2023-08-17T06:28:58;21.23;;;15.23;;
9914;SDS011;4996;48.746;9.174;2023-08-17T06:31:24;21.63;;;16.30;;
9914;SDS011;4996;48.746;9.174;2023-08-17T06:33:52;21.40;;;15.30;;
9914;SDS011;4996;48.746;9.174;2023-08-17T06:36:18;19.23;;;14.60;;
9914;SDS011;4996;48.746;9.174;2023-08-17T06:38:44;22.43;;;15.53;;
9914;SDS011;4996;48.746;9.174;2023-08-17T06:41:09;18.23;;;14.50;;
9914;SDS011;4996;48.746;9.174;2023-08-17T06:43:35;20.43;;;14.30;;
9914;SDS011;4996;48.746;9.174;2023-08-17T06:46:00;17.77;;;14.67;;
9914;SDS011;4996;48.746;9.174;2023-08-17T06:48:26;21.03;;;15.00;;
9914;SDS011;4996;48.746;9.174;2023-08-17T06:50:52;23.33;;;15.27;;
9914;SDS011;4996;48.746;9.174;2023-08-17T06:53:18;21.90;;;13.10;;
9914;SDS011;4996;48.746;9.174;2023-08-17T06:55:43;19.30;;;14.93;;
9914;SDS011;4996;48.746;9.174;2023-08-17T06:58:09;24.53;;;13.80;;
9914;SDS011;4996;48.746;9.174;2023-08-17T07:00:35;16.90;;;14.07;;
9914;SDS011;4996;48.746;9.174;2023-08-17T07:03:01;20.77;;;14.53;;
9914;SDS011;4996;48.746;9.174;2023-08-17T07:05:26;16.13;;;12.60;;
9914;SDS011;4996;48.746;9.174;2023-08-17T07:07:52;20.27;;;14.97;;
9914;SDS011;4996;48.746;9.174;2023-08-17T07:10:18;17.33;;;13.77;;
9914;SDS011;4996;48.746;9.174;2023-08-17T07:12:44;19.47;;;14.40;;
9914;SDS011;4996;48.746;9.174;2023-08-17T07:15:09;17.83;;;14.40;;
9914;SDS011;4996;48.746;9.174;2023-08-17T07:17:35;17.23;;;14.50;;
9914;SDS011;4996;48.746;9.174;2023-08-17T07:20:04;18.80;;;15.00;;
9914;SDS011;4996;48.746;9.174;2023-08-17T07:22:32;19.00;;;13.27;;
9914;SDS011;4996;48.746;9.174;2023-08-17T07:24:58;14.67;;;12.13;;
9914;SDS011;4996;48.746;9.174;2023-08-17T07:27:23;15.87;;;12.57;;
9914;SDS011;4996;48.746;9.174;2023-08-17T07:29:49;14.20;;;12.70;;
9914;SDS011;4996;48.746;9.174;2023-08-17T07:32:15;16.63;;;13.00;;
9914;SDS011;4996;48.746;9.174;2023-08-17T07:34:40;19.73;;;12.90;;
9914;SDS011;4996;48.746;9.174;2023-08-17T07:37:05;16.23;;;12.73;;
9914;SDS011;4996;48.746;9.174;2023-08-17T07:39:31;17.50;;;12.07;;
9914;SDS011;4996;48.746;9.174;2023-08-17T07:41:57;13.20;;;11.10;;
9914;SDS011;4996;48.746;9.174;2023-08-17T07:44:23;17.97;;;12.97;;
9914;SDS011;4996;48.746;9.174;2023-08-17T07:46:48;14.57;;;11.90;;
9914;SDS011;4996;48.746;9.174;2023-08-17T07:49:14;17.90;;;11.90;;
9914;SDS011;4996;48.746;9.174;2023-08-17T07:51:39;15.80;;;11.00;;
9914;SDS011;4996;48.746;9.174;2023-08-17T07:54:05;14.80;;;11.13;;
9914;SDS011;4996;48.746;9.174;2023-08-17T07:56:30;14.83;;;11.33;;
9914;SDS011;4996;48.746;9.174;2023-08-17T07:58:56;12.57;;;10.10;;
9914;SDS011;4996;48.746;9.174;2023-08-17T08:01:22;13.17;;;11.40;;
9914;SDS011;4996;48.746;9.174;2023-08-17T08:03:48;13.20;;;11.70;;
9914;SDS011;4996;48.746;9.174;2023-08-17T08:06:13;13.03;;;10.50;;
9914;SDS011;4996;48.746;9.174;2023-08-17T08:08:41;12.60;;;9.87;;
9914;SDS011;4996;48.746;9.174;2023-08-17T08:11:07;11.27;;;10.07;;
9914;SDS011;4996;48.746;9.174;2023-08-17T08:13:32;11.17;;;9.93;;
9914;SDS011;4996;48.746;9.174;2023-08-17T08:15:58;13.00;;;9.70;;
9914;SDS011;4996;48.746;9.174;2023-08-17T08:18:24;12.80;;;10.00;;
9914;SDS011;4996;48.746;9.174;2023-08-17T08:20:50;12.53;;;9.67;;
9914;SDS011;4996;48.746;9.174;2023-08-17T08:23:15;10.77;;;9.60;;
9914;SDS011;4996;48.746;9.174;2023-08-17T08:25:41;15.37;;;9.17;;
9914;SDS011;4996;48.746;9.174;2023-08-17T08:28:06;10.43;;;8.90;;
9914;SDS011;4996;48.746;9.174;2023-08-17T08:30:33;8.47;;;7.70;;
9914;SDS011;4996;48.746;9.174;2023-08-17T08:32:59;10.90;;;9.37;;
9914;SDS011;4996;48.746;9.174;2023-08-17T08:35:25;9.47;;;8.53;;
9914;SDS011;4996;48.746;9.174;2023-08-17T08:37:50;12.13;;;8.77;;
9914;SDS011;4996;48.746;9.174;2023-08-17T08:40:17;10.60;;;8.20;;
9914;SDS011;4996;48.746;9.174;2023-08-17T08:42:42;11.07;;;7.53;;
9914;SDS011;4996;48.746;9.174;2023-08-17T08:45:09;9.93;;;7.70;;
9914;SDS011;4996;48.746;9.174;2023-08-17T08:47:36;8.10;;;7.07;;
9914;SDS011;4996;48.746;9.174;2023-08-17T08:50:02;7.60;;;6.80;;
9914;SDS011;4996;48.746;9.174;2023-08-17T08:52:38;9.80;;;7.60;;
9914;SDS011;4996;48.746;9.174;2023-08-17T08:55:51;7.77;;;6.90;;
9914;SDS011;4996;48.746;9.174;2023-08-17T08:57:59;8.77;;;7.80;;
9914;SDS011;4996;48.746;9.174;2023-08-17T09:00:25;7.17;;;5.77;;
9914;SDS011;4996;48.746;9.174;2023-08-17T09:02:51;7.23;;;6.27;;
9914;SDS011;4996;48.746;9.174;2023-08-17T09:05:18;10.77;;;7.37;;
9914;SDS011;4996;48.746;9.174;2023-08-17T09:07:44;9.07;;;6.50;;
9914;SDS011;4996;48.746;9.174;2023-08-17T09:10:12;10.50;;;6.90;;
9914;SDS011;4996;48.746;9.174;2023-08-17T09:12:39;7.30;;;6.50;;
9914;SDS011;4996;48.746;9.174;2023-08-17T09:15:04;6.50;;;5.60;;
9914;SDS011;4996;48.746;9.174;2023-08-17T09:17:31;6.57;;;5.20;;
9914;SDS011;4996;48.746;9.174;2023-08-17T09:19:59;8.07;;;5.63;;
9914;SDS011;4996;48.746;9.174;2023-08-17T09:22:25;5.90;;;5.40;;
9914;SDS011;4996;48.746;9.174;2023-08-17T09:25:01;5.93;;;4.90;;
9914;SDS011;4996;48.746;9.174;2023-08-17T09:27:27;7.60;;;6.10;;
9914;SDS011;4996;48.746;9.174;2023-08-17T09:29:52;7.90;;;6.77;;
9914;SDS011;4996;48.746;9.174;2023-08-17T09:32:28;6.47;;;5.87;;
9914;SDS011;4996;48.746;9.174;2023-08-17T09:34:55;6.40;;;5.80;;
9914;SDS011;4996;48.746;9.174;2023-08-17T09:37:21;6.00;;;5.33;;
9914;SDS011;4996;48.746;9.174;2023-08-17T09:39:46;8.63;;;5.47;;
9914;SDS011;4996;48.746;9.174;2023-08-17T09:42:12;6.90;;;6.30;;
9914;SDS011;4996;48.746;9.174;2023-08-17T09:44:40;7.23;;;6.53;;
9914;SDS011;4996;48.746;9.174;2023-08-17T09:47:07;7.23;;;5.83;;
9914;SDS011;4996;48.746;9.174;2023-08-17T09:49:32;8.97;;;5.80;;
9914;SDS011;4996;48.746;9.174;2023-08-17T09:52:01;8.33;;;5.70;;
9914;SDS011;4996;48.746;9.174;2023-08-17T09:54:30;6.40;;;4.53;;
9914;SDS011;4996;48.746;9.174;2023-08-17T09:56:57;6.20;;;5.60;;
9914;SDS011;4996;48.746;9.174;2023-08-17T09:59:23;8.83;;;6.07;;
9914;SDS011;4996;48.746;9.174;2023-08-17T10:01:49;6.13;;;5.63;;
9914;SDS011;4996;48.746;9.174;2023-08-17T10:04:20;6.10;;;5.50;;
9914;SDS011;4996;48.746;9.174;2023-08-17T10:06:54;4.70;;;4.30;;
9914;SDS011;4996;48.746;9.174;2023-08-17T10:09:23;6.43;;;4.70;;
9914;SDS011;4996;48.746;9.174;2023-08-17T10:11:51;5.53;;;5.03;;
9914;SDS011;4996;48.746;9.174;2023-08-17T10:14:21;12.70;;;4.77;;
9914;SDS011;4996;48.746;9.174;2023-08-17T10:16:59;5.50;;;4.93;;
9914;SDS011;4996;48.746;9.174;2023-08-17T10:19:33;5.20;;;4.70;;
9914;SDS011;4996;48.746;9.174;2023-08-17T10:22:23;9.97;;;4.87;;
9914;SDS011;4996;48.746;9.174;2023-08-17T10:24:57;5.67;;;5.07;;
9914;SDS011;4996;48.746;9.174;2023-08-17T10:27:24;5.33;;;4.83;;
9914;SDS011;4996;48.746;9.174;2023-08-17T10:29:51;5.03;;;4.50;;
9914;SDS011;4996;48.746;9.174;2023-08-17T10:32:17;5.20;;;4.70;;
9914;SDS011;4996;48.746;9.174;2023-08-17T10:34:43;4.97;;;4.47;;
9914;SDS011;4996;48.746;9.174;2023-08-17T10:37:09;5.50;;;5.00;;
9914;SDS011;4996;48.746;9.174;2023-08-17T10:39:36;6.27;;;5.67;;
9914;SDS011;4996;48.746;9.174;2023-08-17T10:42:10;6.33;;;5.73;;
9914;SDS011;4996;48.746;9.174;2023-08-17T10:44:45;5.77;;;5.23;;
9914;SDS011;4996;48.746;9.174;2023-08-17T10:47:19;6.00;;;5.40;;
9914;SDS011;4996;48.746;9.174;2023-08-17T10:49:45;12.23;;;5.93;;
9914;SDS011;4996;48.746;9.174;2023-08-17T10:52:12;5.87;;;5.27;;
9914;SDS011;4996;48.746;9.174;2023-08-17T10:54:38;6.37;;;5.83;;
9914;SDS011;4996;48.746;9.174;2023-08-17T10:57:24;5.37;;;4.63;;
9914;SDS011;4996;48.746;9.174;2023-08-17T11:05:42;7.30;;;6.43;;
9914;SDS011;4996;48.746;9.174;2023-08-17T11:08:09;6.20;;;5.70;;
9914;SDS011;4996;48.746;9.174;2023-08-17T11:10:36;6.57;;;5.97;;
9914;SDS011;4996;48.746;9.174;2023-08-17T11:13:03;10.23;;;8.13;;
9914;SDS011;4996;48.746;9.174;2023-08-17T11:15:35;8.37;;;7.30;;
9914;SDS011;4996;48.746;9.174;2023-08-17T11:18:03;7.00;;;6.40;;
9914;SDS011;4996;48.746;9.174;2023-08-17T11:20:30;7.70;;;7.10;;
9914;SDS011;4996;48.746;9.174;2023-08-17T11:22:57;7.93;;;6.87;;
9914;SDS011;4996;48.746;9.174;2023-08-17T11:25:23;8.10;;;7.40;;
9914;SDS011;4996;48.746;9.174;2023-08-17T11:27:49;6.83;;;6.13;;
9914;SDS011;4996;48.746;9.174;2023-08-17T11:30:15;5.97;;;5.47;;
9914;SDS011;4996;48.746;9.174;2023-08-17T11:32:40;8.10;;;6.67;;
9914;SDS011;4996;48.746;9.174;2023-08-17T11:35:06;6.43;;;5.83;;
9914;SDS011;4996;48.746;9.174;2023-08-17T11:37:32;9.37;;;7.30;;
9914;SDS011;4996;48.746;9.174;2023-08-17T11:39:57;7.97;;;7.27;;
9914;SDS011;4996;48.746;9.174;2023-08-17T11:42:23;6.73;;;6.00;;
9914;SDS011;4996;48.746;9.174;2023-08-17T11:44:50;8.80;;;7.63;;
9914;SDS011;4996;48.746;9.174;2023-08-17T11:47:15;8.27;;;7.50;;
9914;SDS011;4996;48.746;9.174;2023-08-17T11:49:41;11.03;;;7.97;;
9914;SDS011;4996;48.746;9.174;2023-08-17T11:52:08;8.37;;;5.40;;
9914;SDS011;4996;48.746;9.174;2023-08-17T11:54:39;6.23;;;5.57;;
9914;SDS011;4996;48.746;9.174;2023-08-17T11:57:05;6.23;;;5.73;;
9914;SDS011;4996;48.746;9.174;2023-08-17T11:59:31;6.53;;;5.97;;
9914;SDS011;4996;48.746;9.174;2023-08-17T12:01:58;6.07;;;5.47;;
9914;SDS011;4996;48.746;9.174;2023-08-17T12:04:25;7.00;;;6.30;;
9914;SDS011;4996;48.746;9.174;2023-08-17T12:06:51;7.10;;;6.50;;
9914;SDS011;4996;48.746;9.174;2023-08-17T12:09:17;8.83;;;6.37;;
9914;SDS011;4996;48.746;9.174;2023-08-17T12:11:44;7.40;;;6.70;;
9914;SDS011;4996;48.746;9.174;2023-08-17T12:14:10;7.13;;;6.27;;
9914;SDS011;4996;48.746;9.174;2023-08-17T12:16:46;6.70;;;6.10;;
9914;SDS011;4996;48.746;9.174;2023-08-17T12:19:15;7.97;;;7.17;;
9914;SDS011;4996;48.746;9.174;2023-08-17T12:21:45;6.93;;;6.33;;
9914;SDS011;4996;48.746;9.174;2023-08-17T12:24:12;9.03;;;6.77;;
9914;SDS011;4996;48.746;9.174;2023-08-17T12:26:43;9.33;;;7.50;;
9914;SDS011;4996;48.746;9.174;2023-08-17T12:29:09;7.03;;;6.43;;
9914;SDS011;4996;48.746;9.174;2023-08-17T12:31:34;7.63;;;6.87;;
9914;SDS011;4996;48.746;9.174;2023-08-17T12:34:00;8.07;;;7.27;;
9914;SDS011;4996;48.746;9.174;2023-08-17T12:36:26;8.10;;;7.30;;
9914;SDS011;4996;48.746;9.174;2023-08-17T12:38:51;10.57;;;7.50;;
9914;SDS011;4996;48.746;9.174;2023-08-17T12:41:17;10.43;;;9.20;;
9914;SDS011;4996;48.746;9.174;2023-08-17T12:43:43;10.63;;;9.27;;
9914;SDS011;4996;48.746;9.174;2023-08-17T12:46:09;9.20;;;8.17;;
9914;SDS011;4996;48.746;9.174;2023-08-17T12:48:35;9.93;;;8.40;;
9914;SDS011;4996;48.746;9.174;2023-08-17T12:51:01;9.70;;;8.70;;
9914;SDS011;4996;48.746;9.174;2023-08-17T12:53:27;8.67;;;7.77;;
9914;SDS011;4996;48.746;9.174;2023-08-17T12:55:53;10.47;;;8.73;;
9914;SDS011;4996;48.746;9.174;2023-08-17T12:58:18;9.87;;;8.83;;
9914;SDS011;4996;48.746;9.174;2023-08-17T13:00:44;12.07;;;9.03;;
9914;SDS011;4996;48.746;9.174;2023-08-17T13:03:09;9.30;;;8.10;;
9914;SDS011;4996;48.746;9.174;2023-08-17T13:05:35;8.83;;;8.13;;
9914;SDS011;4996;48.746;9.174;2023-08-17T13:08:00;9.60;;;8.60;;
9914;SDS011;4996;48.746;9.174;2023-08-17T13:10:26;10.30;;;7.60;;
9914;SDS011;4996;48.746;9.174;2023-08-17T13:12:52;7.73;;;7.07;;
9914;SDS011;4996;48.746;9.174;2023-08-17T13:15:20;7.80;;;7.17;;
9914;SDS011;4996;48.746;9.174;2023-08-17T13:17:46;7.57;;;6.80;;
9914;SDS011;4996;48.746;9.174;2023-08-17T13:20:12;8.17;;;7.37;;
9914;SDS011;4996;48.746;9.174;2023-08-17T13:22:38;7.33;;;6.63;;
9914;SDS011;4996;48.746;9.174;2023-08-17T13:25:03;12.03;;;6.70;;
9914;SDS011;4996;48.746;9.174;2023-08-17T13:27:29;7.77;;;6.70;;
9914;SDS011;4996;48.746;9.174;2023-08-17T13:29:55;12.30;;;7.80;;
9914;SDS011;4996;48.746;9.174;2023-08-17T13:32:20;8.77;;;6.70;;
9914;SDS011;4996;48.746;9.174;2023-08-17T13:34:46;7.10;;;6.50;;
9914;SDS011;4996;48.746;9.174;2023-08-17T13:37:11;11.40;;;6.33;;
9914;SDS011;4996;48.746;9.174;2023-08-17T13:39:37;8.33;;;6.23;;
9914;SDS011;4996;48.746;9.174;2023-08-17T13:42:02;8.77;;;7.43;;
9914;SDS011;4996;48.746;9.174;2023-08-17T13:44:28;7.73;;;6.97;;
9914;SDS011;4996;48.746;9.174;2023-08-17T13:46:54;8.97;;;8.00;;
9914;SDS011;4996;48.746;9.174;2023-08-17T13:49:19;8.57;;;7.60;;
9914;SDS011;4996;48.746;9.174;2023-08-17T13:51:45;8.93;;;7.70;;
9914;SDS011;4996;48.746;9.174;2023-08-17T13:54:10;8.70;;;7.80;;
9914;SDS011;4996;48.746;9.174;2023-08-17T13:56:36;9.13;;;7.50;;
9914;SDS011;4996;48.746;9.174;2023-08-17T13:59:01;8.80;;;7.23;;
9914;SDS011;4996;48.746;9.174;2023-08-17T14:01:27;9.10;;;8.20;;
9914;SDS011;4996;48.746;9.174;2023-08-17T14:03:53;10.30;;;9.20;;
9914;SDS011;4996;48.746;9.174;2023-08-17T14:06:18;10.43;;;8.27;;
9914;SDS011;4996;48.746;9.174;2023-08-17T14:08:44;11.07;;;9.13;;
9914;SDS011;4996;48.746;9.174;2023-08-17T14:11:09;10.40;;;9.40;;
9914;SDS011;4996;48.746;9.174;2023-08-17T14:13:35;12.10;;;9.30;;
9914;SDS011;4996;48.746;9.174;2023-08-17T14:16:01;8.90;;;8.00;;
9914;SDS011;4996;48.746;9.174;2023-08-17T14:18:27;10.00;;;9.07;;
9914;SDS011;4996;48.746;9.174;2023-08-17T14:20:53;9.17;;;8.23;;
9914;SDS011;4996;48.746;9.174;2023-08-17T14:23:18;9.67;;;8.67;;
9914;SDS011;4996;48.746;9.174;2023-08-17T14:25:44;9.40;;;8.50;;
9914;SDS011;4996;48.746;9.174;2023-08-17T14:28:10;11.43;;;9.23;;
9914;SDS011;4996;48.746;9.174;2023-08-17T14:30:35;10.90;;;9.40;;
9914;SDS011;4996;48.746;9.174;2023-08-17T14:33:01;10.53;;;9.30;;
9914;SDS011;4996;48.746;9.174;2023-08-17T14:35:27;11.30;;;10.20;;
9914;SDS011;4996;48.746;9.174;2023-08-17T14:37:53;9.63;;;8.83;;
9914;SDS011;4996;48.746;9.174;2023-08-17T14:40:22;9.50;;;8.53;;
9914;SDS011;4996;48.746;9.174;2023-08-17T14:42:48;24.03;;;18.53;;
9914;SDS011;4996;48.746;9.174;2023-08-17T14:45:13;12.07;;;9.33;;
9914;SDS011;4996;48.746;9.174;2023-08-17T14:47:39;46.77;;;25.53;;
9914;SDS011;4996;48.746;9.174;2023-08-17T14:50:05;16.97;;;12.80;;
9914;SDS011;4996;48.746;9.174;2023-08-17T14:52:31;8.90;;;8.00;;
9914;SDS011;4996;48.746;9.174;2023-08-17T14:54:56;14.20;;;10.33;;
9914;SDS011;4996;48.746;9.174;2023-08-17T14:57:22;12.47;;;9.97;;
9914;SDS011;4996;48.746;9.174;2023-08-17T14:59:48;10.50;;;9.40;;
9914;SDS011;4996;48.746;9.174;2023-08-17T15:02:13;10.77;;;8.77;;